GL-0008 weather

CLOSED Camp Tuto Airport
Greenland

Public forecast

Using degrees Celsius for public forecast. Weather courtesy of forecast.io.

METAR (pilot weather report)

Closest report is Thule Air Base, 8.0 nm (14.8 km) NW. Retrieved 2019/04/24 05:56 UTC (22 minutes ago):

BGTL 240556Z AUTO 13006KT 9999 CLR M18/M20 A2975 RMK AO2 SLP064 T11821204 11144 21187 53001 TSNO $

TAF (pilot weather forecast)

Forecast is more than 12 hours old.

Closest forecast is Thule Air Base, 8.0 nm (14.8 km) NW. Retrieved 2019/04/23 17:09 UTC (13 hours ago):

TAF BGTL 231700Z 2317/2423 10009KT 9999 SKC QNH2965INS BECMG 2322/2323 26006KT 9999 BKN080 BKN150 QNH2970INS TXM13/2319Z TNM24/2409Z